sensor_id;sensor_type;location;lat;lon;timestamp;P1;durP1;ratioP1;P2;durP2;ratioP2
25984;SDS011;66753;53.848;10.658;2023-04-01T00:06:52;8.48;;;4.20;;
25984;SDS011;66753;53.848;10.658;2023-04-01T00:21:53;8.68;;;4.57;;
25984;SDS011;66753;53.848;10.658;2023-04-01T00:36:54;12.70;;;5.50;;
25984;SDS011;66753;53.848;10.658;2023-04-01T00:51:54;9.95;;;5.30;;
25984;SDS011;66753;53.848;10.658;2023-04-01T01:37:44;12.50;;;5.43;;
25984;SDS011;66753;53.848;10.658;2023-04-01T01:52:46;12.43;;;6.00;;
25984;SDS011;66753;53.848;10.658;2023-04-01T02:07:48;13.02;;;6.18;;
25984;SDS011;66753;53.848;10.658;2023-04-01T02:22:55;12.23;;;5.90;;
25984;SDS011;66753;53.848;10.658;2023-04-01T02:37:59;8.03;;;3.37;;
25984;SDS011;66753;53.848;10.658;2023-04-01T02:53:00;4.60;;;1.60;;
25984;SDS011;66753;53.848;10.658;2023-04-01T03:08:02;3.70;;;1.40;;
25984;SDS011;66753;53.848;10.658;2023-04-01T03:23:03;4.50;;;1.52;;
25984;SDS011;66753;53.848;10.658;2023-04-01T03:38:03;2.95;;;1.30;;
25984;SDS011;66753;53.848;10.658;2023-04-01T03:53:04;3.58;;;1.42;;
25984;SDS011;66753;53.848;10.658;2023-04-01T04:08:05;3.70;;;1.20;;
25984;SDS011;66753;53.848;10.658;2023-04-01T04:23:05;1.95;;;0.98;;
25984;SDS011;66753;53.848;10.658;2023-04-01T04:38:06;2.28;;;1.08;;
25984;SDS011;66753;53.848;10.658;2023-04-01T04:53:08;1.65;;;0.70;;
25984;SDS011;66753;53.848;10.658;2023-04-01T05:08:10;2.90;;;1.00;;
25984;SDS011;66753;53.848;10.658;2023-04-01T05:23:10;1.20;;;0.60;;
25984;SDS011;66753;53.848;10.658;2023-04-01T05:38:11;2.00;;;0.50;;
25984;SDS011;66753;53.848;10.658;2023-04-01T05:53:11;4.03;;;1.50;;
25984;SDS011;66753;53.848;10.658;2023-04-01T06:08:13;1.75;;;0.80;;
25984;SDS011;66753;53.848;10.658;2023-04-01T06:23:21;2.93;;;1.00;;
25984;SDS011;66753;53.848;10.658;2023-04-01T06:38:33;2.90;;;1.10;;
25984;SDS011;66753;53.848;10.658;2023-04-01T07:09:10;2.80;;;1.17;;
25984;SDS011;66753;53.848;10.658;2023-04-01T07:24:26;1.87;;;0.40;;
25984;SDS011;66753;53.848;10.658;2023-04-01T07:55:29;1.40;;;0.57;;
25984;SDS011;66753;53.848;10.658;2023-04-01T08:25:58;1.60;;;0.47;;
25984;SDS011;66753;53.848;10.658;2023-04-01T08:41:11;0.70;;;0.20;;
25984;SDS011;66753;53.848;10.658;2023-04-01T08:56:36;1.53;;;0.27;;
25984;SDS011;66753;53.848;10.658;2023-04-01T09:11:53;0.30;;;0.10;;
25984;SDS011;66753;53.848;10.658;2023-04-01T13:48:18;5.37;;;2.10;;
25984;SDS011;66753;53.848;10.658;2023-04-01T14:49:51;6.30;;;2.10;;
25984;SDS011;66753;53.848;10.658;2023-04-01T16:37:08;4.50;;;1.53;;
25984;SDS011;66753;53.848;10.658;2023-04-01T16:52:14;4.10;;;1.33;;
25984;SDS011;66753;53.848;10.658;2023-04-01T18:24:45;3.37;;;1.37;;
25984;SDS011;66753;53.848;10.658;2023-04-01T18:39:52;3.87;;;1.37;;
25984;SDS011;66753;53.848;10.658;2023-04-01T19:25:56;3.87;;;1.20;;
25984;SDS011;66753;53.848;10.658;2023-04-01T19:56:19;7.03;;;1.10;;
25984;SDS011;66753;53.848;10.658;2023-04-01T20:11:38;2.50;;;0.63;;
25984;SDS011;66753;53.848;10.658;2023-04-01T20:26:43;3.73;;;1.47;;
25984;SDS011;66753;53.848;10.658;2023-04-01T20:57:24;2.83;;;0.60;;
25984;SDS011;66753;53.848;10.658;2023-04-01T21:58:44;4.37;;;0.90;;
25984;SDS011;66753;53.848;10.658;2023-04-01T22:14:08;2.87;;;0.50;;
25984;SDS011;66753;53.848;10.658;2023-04-01T22:29:35;1.57;;;0.40;;
25984;SDS011;66753;53.848;10.658;2023-04-01T23:15:13;3.07;;;0.50;;
25984;SDS011;66753;53.848;10.658;2023-04-01T23:45:38;4.60;;;1.23;;
